Time;durP1;ratioP1;P1;durP2;ratioP2;P2;SDS_P1;SDS_P2;PMS_P1;PMS_P2;Temp;Humidity;BMP_temperature;BMP_pressure;BME280_temperature;BME280_humidity;BME280_pressure;Samples;Min_cycle;Max_cycle;Signal;HPM_P1;HPM_P2
2022/12/26 00:00:16;;;;;;;48.54;30.74;;;;;;;4.93;78.00;101459.72;465113;113;922607;-82
2022/12/26 00:01:22;;;;;;;46.29;30.16;;;;;;;4.93;78.01;101463.27;465129;114;930625;-81
2022/12/26 00:02:25;;;;;;;46.76;30.46;;;;;;;4.94;77.98;101461.42;465066;114;922389;-82
2022/12/26 00:03:29;;;;;;;50.62;30.34;;;;;;;4.93;78.10;101457.86;464911;113;922356;-83
2022/12/26 00:04:32;;;;;;;49.95;30.16;;;;;;;4.93;78.01;101457.02;465217;113;922369;-82
2022/12/26 00:05:37;;;;;;;46.18;29.84;;;;;;;4.93;78.06;101463.27;463203;113;922517;-81
2022/12/26 00:06:40;;;;;;;47.52;30.02;;;;;;;4.94;78.06;101464.13;465299;113;922477;-81
2022/12/26 00:07:43;;;;;;;54.46;30.51;;;;;;;4.94;78.01;101462.27;464872;114;922548;-82
2022/12/26 00:08:47;;;;;;;46.81;29.71;;;;;;;4.93;78.02;101465.97;465331;114;922451;-82
2022/12/26 00:09:50;;;;;;;45.98;29.01;;;;;;;4.94;78.11;101464.13;465304;112;922595;-81
2022/12/26 00:10:53;;;;;;;52.33;30.77;;;;;;;4.93;78.09;101460.56;465269;113;922563;-81
2022/12/26 00:11:56;;;;;;;45.54;29.40;;;;;;;4.92;78.16;101458.02;465301;114;922474;-81
2022/12/26 00:12:59;;;;;;;50.80;30.23;;;;;;;4.93;78.18;101454.31;465122;114;922430;-83
2022/12/26 00:14:07;;;;;;;45.65;29.06;;;;;;;4.92;78.07;101458.02;463167;114;922509;-82
2022/12/26 00:15:10;;;;;;;45.27;28.98;;;;;;;4.91;78.10;101457.16;465092;114;922625;-80
2022/12/26 00:16:17;;;;;;;48.45;29.36;;;;;;;4.92;78.11;101452.61;465204;114;922548;-82
2022/12/26 00:17:20;;;;;;;47.38;28.98;;;;;;;4.93;78.25;101459.72;465010;113;923258;-81
2022/12/26 00:18:23;;;;;;;47.83;29.87;;;;;;;4.94;78.22;101458.72;464726;114;922446;-81
2022/12/26 00:19:26;;;;;;;48.84;29.26;;;;;;;4.94;78.24;101456.02;465200;114;922877;-81
2022/12/26 00:20:30;;;;;;;50.24;29.49;;;;;;;4.95;78.13;101457.72;465270;112;922479;-82
2022/12/26 00:21:33;;;;;;;45.47;28.35;;;;;;;4.95;78.13;101457.72;465289;113;922469;-80
2022/12/26 00:22:36;;;;;;;39.70;27.92;;;;;;;4.94;78.21;101456.02;465095;114;922514;-82
2022/12/26 00:23:41;;;;;;;43.85;27.66;;;;;;;4.94;78.21;101461.42;456953;115;922741;-80
2022/12/26 00:24:44;;;;;;;41.84;28.32;;;;;;;4.93;78.06;101455.16;457077;116;922527;-81
2022/12/26 00:25:47;;;;;;;43.91;28.05;;;;;;;4.93;78.06;101460.56;457108;116;930174;-84
2022/12/26 00:26:51;;;;;;;39.26;27.38;;;;;;;4.92;78.16;101461.56;457089;115;922533;-83
2022/12/26 00:27:54;;;;;;;44.53;28.26;;;;;;;4.91;78.12;101459.02;459111;114;923002;-82
2022/12/26 00:28:57;;;;;;;38.87;27.09;;;;;;;4.90;78.10;101455.49;465267;114;922356;-82
2022/12/26 00:30:00;;;;;;;41.04;26.61;;;;;;;4.89;78.14;101456.48;465293;112;922456;-82
2022/12/26 00:31:06;;;;;;;45.77;28.61;;;;;;;4.88;78.14;101449.38;465293;114;922510;-79
2022/12/26 00:32:17;;;;;;;39.88;27.37;;;;;;;4.99;78.25;101457.23;482518;110;947217;-82
2022/12/26 00:33:20;;;;;;;42.81;28.81;;;;;;;4.89;78.14;101455.64;473277;112;922601;-80
2022/12/26 00:34:23;;;;;;;39.83;27.64;;;;;;;4.88;78.15;101449.38;474099;112;922489;-83
2022/12/26 00:35:26;;;;;;;45.15;28.60;;;;;;;4.89;78.27;101456.48;468738;112;922712;-80
2022/12/26 00:36:32;;;;;;;41.92;28.58;;;;;;;4.90;78.29;101458.20;465652;114;922546;-81
2022/12/26 00:37:35;;;;;;;43.55;28.98;;;;;;;4.91;78.03;101456.31;465392;114;922421;-82
2022/12/26 00:38:40;;;;;;;44.54;29.52;;;;;;;4.91;78.03;101456.31;465285;114;922602;-80
2022/12/26 00:39:43;;;;;;;40.29;29.67;;;;;;;4.90;78.30;101451.94;465536;114;922907;-82
2022/12/26 00:40:46;;;;;;;41.88;29.51;;;;;;;4.89;78.22;101453.79;465725;113;922573;-82
2022/12/26 00:41:49;;;;;;;43.65;28.52;;;;;;;4.89;78.24;101461.89;465725;114;922565;-82
2022/12/26 00:42:52;;;;;;;43.22;28.66;;;;;;;4.90;78.39;101458.20;465438;114;922502;-82
2022/12/26 00:43:55;;;;;;;39.60;28.46;;;;;;;4.91;78.24;101461.72;465687;114;922426;-80
2022/12/26 00:44:59;;;;;;;38.39;26.96;;;;;;;4.91;78.36;101459.02;465637;114;922966;-81
2022/12/26 00:46:03;;;;;;;42.43;27.23;;;;;;;4.90;78.27;101460.05;465723;114;922959;-81
2022/12/26 00:47:06;;;;;;;39.99;28.20;;;;;;;4.89;78.27;101459.19;465602;114;922593;-81
2022/12/26 00:48:09;;;;;;;43.51;28.19;;;;;;;4.90;78.25;101462.75;465434;114;923062;-84
2022/12/26 00:49:12;;;;;;;38.86;27.51;;;;;;;4.89;78.41;101461.05;465697;114;922523;-81
2022/12/26 00:50:16;;;;;;;43.98;28.46;;;;;;;4.90;78.42;101465.45;465615;113;922683;-82
2022/12/26 00:51:20;;;;;;;42.80;28.46;;;;;;;4.90;78.41;101468.16;465681;114;922487;-82
2022/12/26 00:52:24;;;;;;;46.39;29.80;;;;;;;4.92;78.25;101466.12;465642;114;923037;-82
2022/12/26 00:53:27;;;;;;;46.52;29.42;;;;;;;4.90;78.26;101465.45;465043;114;922592;-83
2022/12/26 00:54:31;;;;;;;43.98;28.54;;;;;;;4.90;78.14;101460.05;465123;114;930291;-82
2022/12/26 00:55:34;;;;;;;44.12;27.69;;;;;;;4.90;78.19;101471.70;464195;112;922507;-83
2022/12/26 00:56:37;;;;;;;41.07;26.94;;;;;;;4.92;78.21;101471.52;463301;114;922981;-83
2022/12/26 00:57:41;;;;;;;40.80;26.97;;;;;;;4.92;78.27;101469.67;462857;114;922430;-82
2022/12/26 00:58:44;;;;;;;39.20;28.19;;;;;;;4.93;78.33;101467.83;465633;114;922543;-81
2022/12/26 00:59:47;;;;;;;39.92;27.71;;;;;;;4.95;78.42;101469.38;465602;113;930567;-83
2022/12/26 01:00:51;;;;;;;44.33;28.26;;;;;;;4.98;78.37;101462.80;465770;114;923245;-80
2022/12/26 01:01:54;;;;;;;45.82;28.35;;;;;;;4.98;78.49;101469.05;465650;114;922573;-82
2022/12/26 01:02:57;;;;;;;48.16;28.51;;;;;;;5.00;78.39;101467.05;465174;114;930183;-81
2022/12/26 01:04:01;;;;;;;47.33;28.63;;;;;;;5.02;78.39;101461.47;465661;114;923156;-82
2022/12/26 01:05:07;;;;;;;48.68;28.99;;;;;;;5.03;78.33;101476.69;465608;114;922535;-81
2022/12/26 01:06:12;;;;;;;45.95;28.57;;;;;;;5.03;78.32;101471.28;465498;114;922468;-81
2022/12/26 01:07:15;;;;;;;47.26;28.06;;;;;;;5.04;78.35;101476.53;465640;114;922817;-82
2022/12/26 01:08:19;;;;;;;39.75;27.77;;;;;;;5.05;78.34;101474.69;465349;114;922571;-80
2022/12/26 01:09:24;;;;;;;44.86;28.38;;;;;;;5.06;78.35;101472.83;465018;114;922803;-80
2022/12/26 01:10:27;;;;;;;44.65;28.23;;;;;;;5.06;78.26;101476.39;465683;113;922490;-82
2022/12/26 01:11:39;;;;;;;42.84;28.18;;;;;;;5.07;78.39;101479.94;465585;114;922494;-81
2022/12/26 01:12:43;;;;;;;43.41;27.24;;;;;;;5.06;78.30;101476.39;465152;114;930014;-81
2022/12/26 01:13:46;;;;;;;51.10;28.94;;;;;;;5.07;78.33;101477.23;465576;114;922445;-81
2022/12/26 01:14:49;;;;;;;46.50;29.26;;;;;;;5.06;78.37;101470.98;465707;114;922530;-81
2022/12/26 01:15:53;;;;;;;49.81;29.27;;;;;;;5.09;78.37;101472.50;465717;114;922534;-82
2022/12/26 01:16:56;;;;;;;46.90;28.75;;;;;;;5.07;78.35;101475.39;465618;114;922735;-80
2022/12/26 01:18:00;;;;;;;44.57;28.11;;;;;;;5.10;78.32;101479.61;465220;114;923049;-82
2022/12/26 01:19:03;;;;;;;45.10;28.27;;;;;;;5.10;78.35;101466.09;465648;114;922460;-82
2022/12/26 01:20:08;;;;;;;46.55;29.28;;;;;;;5.11;78.42;101479.46;465555;113;930267;-81
2022/12/26 01:21:11;;;;;;;43.36;27.56;;;;;;;5.12;78.41;101480.31;465596;114;922472;-82
2022/12/26 01:22:14;;;;;;;45.62;28.16;;;;;;;5.10;78.39;101472.36;465745;114;922516;-82
2022/12/26 01:23:17;;;;;;;42.89;26.24;;;;;;;5.10;78.39;101480.46;460591;114;922462;-82
2022/12/26 01:24:20;;;;;;;50.99;29.16;;;;;;;5.10;78.17;101476.91;457600;116;922774;-81
2022/12/26 01:25:23;;;;;;;45.06;27.61;;;;;;;5.09;78.18;101476.05;457575;116;922800;-83
2022/12/26 01:26:27;;;;;;;51.48;28.58;;;;;;;5.09;78.34;101475.20;457588;116;922871;-82
2022/12/26 01:27:30;;;;;;;44.63;28.89;;;;;;;5.07;78.28;101478.09;457560;116;922855;-82
2022/12/26 01:28:33;;;;;;;45.86;28.36;;;;;;;5.07;78.27;101477.23;465244;114;923063;-81
2022/12/26 01:29:36;;;;;;;47.08;29.32;;;;;;;5.07;78.41;101477.23;465722;114;923056;-81
2022/12/26 01:30:39;;;;;;;44.13;28.06;;;;;;;5.05;78.31;101480.09;465746;114;922497;-82
2022/12/26 01:31:42;;;;;;;61.19;35.07;;;;;;;5.05;78.34;101477.39;465633;114;922915;-80
2022/12/26 01:32:46;;;;;;;57.04;34.60;;;;;;;5.04;78.41;101481.94;464968;114;922492;-82
2022/12/26 01:33:49;;;;;;;59.26;36.41;;;;;;;5.03;78.28;101476.69;465678;114;922535;-82
2022/12/26 01:34:54;;;;;;;61.29;35.44;;;;;;;5.03;78.29;101482.94;465657;113;922821;-81
2022/12/26 01:35:57;;;;;;;61.76;36.38;;;;;;;5.03;78.42;101485.64;465530;114;922497;-82
2022/12/26 01:37:00;;;;;;;64.61;38.94;;;;;;;5.03;78.37;101480.23;465579;114;922824;-82
2022/12/26 01:38:04;;;;;;;73.25;43.04;;;;;;;5.04;78.41;101479.23;462133;114;930512;-82
2022/12/26 01:39:07;;;;;;;70.04;41.55;;;;;;;5.05;78.37;101485.49;457443;116;930545;-83
2022/12/26 01:40:11;;;;;;;62.48;38.34;;;;;;;5.04;78.30;101479.23;457457;116;922497;-81
2022/12/26 01:41:20;;;;;;;59.47;36.81;;;;;;;5.06;78.38;101470.13;457388;116;930370;-82
2022/12/26 01:42:25;;;;;;;48.74;30.94;;;;;;;5.05;78.26;101480.09;457385;116;930183;-81
2022/12/26 01:43:31;;;;;;;49.09;31.08;;;;;;;5.06;78.28;101478.23;457884;114;922271;-81
2022/12/26 01:44:56;;;;;;;52.33;32.80;;;;;;;5.05;78.29;101477.39;453075;116;922757;-82
2022/12/26 01:45:59;;;;;;;45.51;31.21;;;;;;;5.05;78.28;101474.69;457810;116;922332;-80
2022/12/26 01:47:02;;;;;;;44.89;29.14;;;;;;;5.05;78.43;101463.87;457970;116;922465;-81
2022/12/26 01:48:21;;;;;;;44.04;28.84;;;;;;;5.06;78.30;101473.69;461778;114;922859;-81
2022/12/26 01:49:34;;;;;;;43.90;28.22;;;;;;;5.04;78.26;101479.23;465899;114;922196;-81
2022/12/26 01:51:01;;;;;;;46.63;30.05;;;;;;;5.03;78.21;101472.12;465021;114;922343;-80
2022/12/26 01:52:08;;;;;;;40.46;27.12;;;;;;;5.02;78.24;101470.42;465636;114;922569;-80
2022/12/26 01:53:21;;;;;;;47.36;28.22;;;;;;;5.00;78.17;101469.75;461578;114;922479;-80
2022/12/26 01:54:27;;;;;;;37.25;26.99;;;;;;;4.97;78.31;101470.05;457764;116;922523;-81
2022/12/26 01:55:32;;;;;;;45.63;28.81;;;;;;;4.96;78.28;101467.53;462254;112;922891;-80
2022/12/26 01:56:38;;;;;;;44.85;29.07;;;;;;;4.95;78.35;101472.08;463675;114;922646;-80
2022/12/26 01:57:45;;;;;;;44.34;29.09;;;;;;;4.95;78.38;101463.13;463526;114;930060;-81
2022/12/26 01:58:51;;;;;;;38.09;27.33;;;;;;;4.94;78.37;101472.23;465807;114;922481;-81
2022/12/26 01:59:57;;;;;;;39.07;28.53;;;;;;;4.93;78.34;101467.83;465584;113;922477;-82
2022/12/26 02:01:03;;;;;;;38.53;26.53;;;;;;;4.91;78.25;101467.13;465578;114;922546;-80
2022/12/26 02:02:07;;;;;;;38.58;26.82;;;;;;;4.91;78.51;101469.82;465532;114;922552;-81
2022/12/26 02:06:00;;;;;;;36.61;25.68;;;;;;;4.90;78.45;101466.30;465551;114;923118;-81
2022/12/26 02:07:04;;;;;;;37.69;27.40;;;;;;;4.91;78.49;101473.38;465454;114;922503;-81
2022/12/26 02:08:14;;;;;;;34.94;25.36;;;;;;;4.90;78.49;101466.30;463176;114;922870;-81
2022/12/26 02:09:18;;;;;;;38.22;27.02;;;;;;;4.90;78.60;101468.16;460741;115;922628;-79
2022/12/26 02:10:25;;;;;;;45.81;27.81;;;;;;;4.89;78.61;101470.00;460750;115;922728;-81
2022/12/26 02:11:32;;;;;;;39.83;27.83;;;;;;;4.90;78.43;101470.86;460732;115;922961;-81
2022/12/26 02:12:35;;;;;;;42.77;28.03;;;;;;;4.90;78.52;101479.81;460110;114;922868;-81
2022/12/26 02:13:40;;;;;;;38.56;27.22;;;;;;;4.89;78.63;101474.55;465311;114;922479;-82
2022/12/26 02:14:45;;;;;;;35.25;25.59;;;;;;;4.90;78.54;101478.96;465652;114;922665;-82
2022/12/26 02:15:48;;;;;;;34.32;23.98;;;;;;;4.89;78.46;101479.95;465392;114;930908;-82
2022/12/26 02:16:52;;;;;;;33.41;24.66;;;;;;;4.88;78.54;101478.26;465526;114;922557;-81
2022/12/26 02:17:55;;;;;;;36.92;26.06;;;;;;;4.86;78.43;101474.84;465201;114;930412;-83
2022/12/26 02:18:58;;;;;;;36.84;26.86;;;;;;;4.84;78.51;101476.88;465637;114;922519;-82
2022/12/26 02:20:19;;;;;;;41.16;28.83;;;;;;;4.82;78.42;101487.83;465574;113;922423;-82
2022/12/26 02:21:41;;;;;;;39.34;27.99;;;;;;;4.82;78.44;101484.28;465440;114;922444;-81
2022/12/26 02:23:15;;;;;;;44.17;29.22;;;;;;;4.80;78.63;101486.27;465098;114;922938;-82
2022/12/26 02:24:40;;;;;;;38.17;28.28;;;;;;;4.80;78.74;101491.68;465074;114;922434;-82
2022/12/26 02:25:59;;;;;;;41.15;30.31;;;;;;;4.80;78.73;101495.23;464983;114;922617;-81
2022/12/26 02:27:11;;;;;;;38.81;29.18;;;;;;;4.79;78.72;101490.86;464947;114;922805;-82
2022/12/26 02:28:39;;;;;;;35.01;26.92;;;;;;;4.77;78.75;101492.86;464709;114;922586;-83
2022/12/26 02:30:04;;;;;;;37.53;28.09;;;;;;;4.76;78.84;101493.86;464092;114;923007;-81
2022/12/26 02:31:45;;;;;;;40.51;28.23;;;;;;;4.73;78.74;101491.48;465411;114;922492;-82
2022/12/26 02:33:06;;;;;;;34.99;26.11;;;;;;;4.71;78.93;101504.28;463673;113;922541;-82
2022/12/26 02:34:28;;;;;;;30.93;25.15;;;;;;;4.69;78.90;101500.02;446044;118;922706;-81
2022/12/26 02:35:43;;;;;;;34.36;24.83;;;;;;;4.67;79.01;101483.98;454671;116;922700;-82
2022/12/26 02:37:02;;;;;;;35.71;26.01;;;;;;;4.68;79.05;101498.34;450689;116;922446;-81
2022/12/26 02:38:36;;;;;;;33.67;25.27;;;;;;;4.68;79.17;101487.54;460075;114;922603;-81
2022/12/26 02:40:08;;;;;;;34.39;24.57;;;;;;;4.68;79.29;101495.64;437983;120;923447;-82
2022/12/26 02:41:20;;;;;;;31.42;23.66;;;;;;;4.67;79.30;101497.50;437963;121;922800;-81
2022/12/26 02:42:51;;;;;;;27.58;23.11;;;;;;;4.67;79.33;101499.34;438000;121;922771;-81
2022/12/26 02:47:05;;;;;;;32.42;24.16;;;;;;;4.64;79.32;101500.48;457481;116;922551;-80
2022/12/26 02:48:21;;;;;;;32.96;24.62;;;;;;;4.63;79.37;101502.33;456726;114;922631;-81
2022/12/26 03:13:25;;;;;;;33.42;22.38;;;;;;;4.57;80.18;101502.98;467646;112;922511;-81
2022/12/26 03:14:49;;;;;;;32.87;21.97;;;;;;;4.57;80.12;101505.68;465419;114;922462;-81
2022/12/26 03:17:32;;;;;;;28.51;21.19;;;;;;;4.57;80.02;101512.93;465504;114;922765;-80
2022/12/26 03:18:39;;;;;;;32.01;21.36;;;;;;;4.57;79.98;101504.83;465650;112;922592;-82
2022/12/26 03:20:00;;;;;;;30.49;21.32;;;;;;;4.54;79.98;101507.81;466326;114;922137;-80
2022/12/26 03:21:06;;;;;;;31.73;22.22;;;;;;;4.52;79.94;101501.73;466837;109;922087;-81
2022/12/26 03:22:29;;;;;;;25.51;20.86;;;;;;;4.50;79.95;101507.28;466847;114;921994;-79
2022/12/26 03:23:17;;;;;;;26.96;21.32;;;;;;;4.48;80.05;101506.58;470683;111;921970;-80
2022/12/26 03:24:21;;;;;;;25.83;20.59;;;;;;;4.47;79.95;101510.27;475242;107;921991;-80
2022/12/26 03:27:02;;;;;;;28.43;19.85;;;;;;;4.44;79.94;101505.19;475261;112;922084;-80
2022/12/26 03:28:05;;;;;;;26.05;19.50;;;;;;;4.39;80.00;101494.00;474195;111;922612;-81
2022/12/26 03:30:50;;;;;;;21.73;18.71;;;;;;;4.33;80.06;101499.16;474738;109;921908;-81
2022/12/26 03:31:54;;;;;;;23.39;19.37;;;;;;;4.29;80.01;101493.22;474743;112;922148;-80
2022/12/26 03:32:58;;;;;;;29.41;20.51;;;;;;;4.26;80.08;101498.91;472373;112;922068;-80
2022/12/26 03:34:18;;;;;;;22.62;18.75;;;;;;;4.25;80.21;101501.75;466801;113;929979;-80
2022/12/26 03:35:23;;;;;;;20.71;18.56;;;;;;;4.24;80.27;101500.08;466825;114;929854;-80
2022/12/26 03:37:03;;;;;;;26.06;18.91;;;;;;;4.22;80.33;101502.92;466795;113;922094;-81
2022/12/26 03:38:12;;;;;;;26.54;19.29;;;;;;;4.19;80.38;101506.75;470323;112;922280;-80
2022/12/26 04:19:25;;;;;;;22.88;18.76;;;;;;;4.20;82.11;101540.84;457447;116;922604;-82
2022/12/26 04:20:34;;;;;;;25.31;18.84;;;;;;;4.22;82.08;101540.70;457411;116;922555;-82
2022/12/26 04:44:10;;;;;;;21.63;18.63;;;;;;;4.28;82.23;101550.06;457435;116;922609;-80
2022/12/26 04:45:11;;;;;;;25.19;19.06;;;;;;;4.29;82.22;101552.61;456866;115;922818;-81
2022/12/26 04:46:16;;;;;;;24.55;19.21;;;;;;;4.31;82.19;101552.44;457425;116;922754;-81
2022/12/26 04:47:20;;;;;;;24.05;19.19;;;;;;;4.31;82.18;101555.14;457515;115;922563;-80
2022/12/26 04:51:06;;;;;;;30.08;19.64;;;;;;;4.36;82.05;101548.29;465506;114;922580;-79
2022/12/26 04:52:13;;;;;;;26.05;19.01;;;;;;;4.39;81.90;101550.70;465721;114;922856;-80
2022/12/26 04:53:16;;;;;;;23.53;19.22;;;;;;;4.39;81.99;101552.55;462531;112;922530;-82
2022/12/26 04:54:19;;;;;;;25.92;19.21;;;;;;;4.40;81.96;101549.70;460880;115;922546;-81
2022/12/26 04:55:30;;;;;;;25.48;18.49;;;;;;;4.42;81.79;101553.09;462458;114;930505;-83
2022/12/26 04:56:33;;;;;;;25.76;18.59;;;;;;;4.44;81.85;101555.64;465216;114;922531;-80
2022/12/26 04:57:37;;;;;;;23.74;18.93;;;;;;;4.45;81.82;101544.70;465301;112;922579;-82
2022/12/26 04:58:40;;;;;;;24.59;18.56;;;;;;;4.46;81.77;101549.11;465664;113;922511;-81
2022/12/26 04:59:43;;;;;;;27.25;20.13;;;;;;;4.47;81.73;101548.08;465732;114;922507;-81
2022/12/26 05:00:46;;;;;;;24.13;18.64;;;;;;;4.49;81.72;101547.94;465699;113;922858;-81
2022/12/26 05:10:09;;;;;;;22.98;17.63;;;;;;;4.56;81.64;101554.44;457534;116;922523;-80
2022/12/26 05:11:12;;;;;;;27.09;18.70;;;;;;;4.56;81.52;101555.29;457564;116;922504;-81
2022/12/26 05:12:15;;;;;;;21.84;18.09;;;;;;;4.57;81.49;101550.74;457679;116;922510;-82
2022/12/26 05:13:18;;;;;;;26.21;18.59;;;;;;;4.59;81.44;101564.92;460305;112;922627;-81
2022/12/26 05:14:21;;;;;;;21.06;17.22;;;;;;;4.59;81.40;101556.81;461025;115;922990;-82
2022/12/26 05:15:25;;;;;;;23.02;16.42;;;;;;;4.59;81.35;101549.57;460926;115;922425;-81
2022/12/26 05:28:42;;;;;;;20.38;17.17;;;;;;;4.70;81.20;101566.55;460829;114;922588;-82
2022/12/26 05:29:45;;;;;;;20.60;16.86;;;;;;;4.71;81.16;101569.11;460823;115;922622;-81
2022/12/26 05:30:49;;;;;;;17.19;15.52;;;;;;;4.72;81.16;101567.27;460923;115;922619;-82
2022/12/26 05:31:52;;;;;;;17.99;16.12;;;;;;;4.74;81.11;101568.80;460850;115;930525;-81
2022/12/26 05:34:19;;;;;;;19.14;15.88;;;;;;;4.77;81.00;101571.20;465517;114;922494;-83
2022/12/26 05:35:21;;;;;;;18.07;15.60;;;;;;;4.80;81.11;101572.73;465513;113;922598;-81
2022/12/26 05:36:28;;;;;;;17.48;15.66;;;;;;;4.81;80.93;101575.29;465531;113;922895;-82
2022/12/26 05:37:31;;;;;;;18.63;15.35;;;;;;;4.84;80.96;101571.45;465640;114;922807;-81
2022/12/26 05:38:35;;;;;;;17.06;14.50;;;;;;;4.85;80.82;101576.67;458095;114;922784;-81
2022/12/26 05:39:39;;;;;;;18.18;15.67;;;;;;;4.86;80.85;101577.53;457694;116;922491;-81
2022/12/26 05:40:42;;;;;;;16.24;14.75;;;;;;;4.88;80.64;101580.94;457656;115;922718;-81
2022/12/26 05:41:45;;;;;;;15.33;13.84;;;;;;;4.88;80.56;101576.39;457757;116;922873;-81
2022/12/26 05:42:49;;;;;;;17.55;14.72;;;;;;;4.89;80.57;101580.80;458852;114;922759;-81
2022/12/26 05:43:52;;;;;;;16.97;15.28;;;;;;;4.89;80.49;101585.34;465876;114;922465;-80
2022/12/26 05:44:55;;;;;;;16.10;14.35;;;;;;;4.88;80.39;101579.09;465907;114;922439;-81
2022/12/26 05:45:59;;;;;;;16.58;15.05;;;;;;;4.89;80.43;101588.05;465885;113;922856;-81
2022/12/26 05:47:02;;;;;;;16.32;14.73;;;;;;;4.90;80.43;101584.34;465929;114;922547;-80
2022/12/26 05:48:05;;;;;;;16.39;14.76;;;;;;;4.90;80.41;101582.50;464972;113;922377;-81
2022/12/26 05:49:09;;;;;;;17.79;15.76;;;;;;;4.91;80.31;101584.17;465670;114;922964;-82
2022/12/26 05:50:12;;;;;;;17.74;15.11;;;;;;;4.93;80.43;101586.73;465671;114;930565;-82
2022/12/26 05:51:16;;;;;;;17.63;15.90;;;;;;;4.95;80.42;101582.03;465799;114;922920;-82
2022/12/26 05:52:19;;;;;;;18.64;15.41;;;;;;;4.94;80.24;101591.98;465716;114;922526;-80
2022/12/26 05:53:22;;;;;;;18.39;16.24;;;;;;;4.96;80.24;101586.44;459348;113;930453;-81
2022/12/26 05:54:25;;;;;;;19.23;17.16;;;;;;;4.97;80.22;101585.41;457595;116;922545;-82
2022/12/26 05:55:29;;;;;;;19.69;16.82;;;;;;;4.98;80.15;101589.81;461223;114;922518;-82
2022/12/26 05:56:32;;;;;;;18.44;16.68;;;;;;;4.98;80.09;101589.81;465659;113;923445;-81
2022/12/26 05:57:35;;;;;;;18.42;16.47;;;;;;;4.97;80.16;101585.41;465618;113;930460;-82
2022/12/26 05:58:39;;;;;;;17.75;16.00;;;;;;;4.98;80.01;101597.92;465453;114;922782;-80
2022/12/26 05:59:42;;;;;;;18.59;16.61;;;;;;;4.97;80.00;101593.52;465726;114;923007;-81
2022/12/26 06:00:45;;;;;;;21.86;17.30;;;;;;;4.96;79.89;101594.55;465718;113;922801;-82
2022/12/26 06:01:48;;;;;;;19.56;16.76;;;;;;;4.94;79.89;101589.28;465762;114;922908;-81
2022/12/26 06:02:52;;;;;;;19.80;17.12;;;;;;;4.95;79.88;101598.25;464126;113;922800;-81
2022/12/26 06:03:58;;;;;;;18.91;16.82;;;;;;;4.92;79.92;101593.13;457455;116;930457;-80
2022/12/26 06:05:01;;;;;;;18.74;16.77;;;;;;;4.93;79.83;101594.84;457366;116;930556;-81
2022/12/26 06:06:06;;;;;;;22.10;18.03;;;;;;;4.92;79.92;101587.72;457640;115;922528;-82
2022/12/26 06:07:09;;;;;;;22.71;17.52;;;;;;;4.91;79.78;101588.72;457431;116;922581;-81
2022/12/26 06:08:12;;;;;;;19.85;17.39;;;;;;;4.91;79.91;101594.12;461672;114;922659;-82
2022/12/26 06:09:15;;;;;;;22.51;18.06;;;;;;;4.90;79.89;101590.61;465731;114;922938;-82
2022/12/26 06:10:19;;;;;;;20.52;16.88;;;;;;;4.90;79.82;101595.16;465648;114;922604;-81
2022/12/26 06:11:25;;;;;;;20.72;17.51;;;;;;;4.90;79.84;101593.31;465665;114;922866;-80
2022/12/26 06:12:28;;;;;;;20.75;17.90;;;;;;;4.91;79.99;101594.12;465460;114;930545;-82
2022/12/26 06:13:31;;;;;;;20.64;18.54;;;;;;;4.91;79.89;101596.83;465445;113;922545;-81
2022/12/26 06:14:34;;;;;;;20.01;17.69;;;;;;;4.93;79.81;101602.94;465754;114;922461;-80
2022/12/26 06:15:38;;;;;;;18.95;16.96;;;;;;;4.93;79.84;101600.24;465728;113;922534;-81
2022/12/26 06:16:41;;;;;;;19.11;17.07;;;;;;;4.94;79.83;101610.91;465630;113;922499;-81
2022/12/26 06:17:45;;;;;;;19.84;17.55;;;;;;;4.94;79.87;101608.20;464929;114;922531;-82
2022/12/26 06:18:48;;;;;;;18.09;16.24;;;;;;;4.94;79.74;101605.50;465764;114;922446;-81
2022/12/26 06:19:51;;;;;;;20.87;17.65;;;;;;;4.94;79.74;101602.80;465666;114;922612;-80
2022/12/26 06:20:54;;;;;;;19.78;17.48;;;;;;;4.96;79.83;101606.17;465721;113;922519;-81
2022/12/26 06:21:57;;;;;;;18.43;16.54;;;;;;;4.97;79.80;101607.88;465746;114;922460;-80
2022/12/26 06:23:01;;;;;;;18.54;16.71;;;;;;;4.98;79.75;101609.59;465005;114;922628;-80
2022/12/26 06:24:05;;;;;;;18.21;16.46;;;;;;;4.99;79.66;101611.30;465655;114;922559;-79
2022/12/26 06:25:08;;;;;;;19.96;16.91;;;;;;;5.01;79.77;101616.55;465641;114;922463;-81
2022/12/26 06:26:12;;;;;;;18.56;16.80;;;;;;;5.01;79.63;101605.74;465626;113;930391;-81
2022/12/26 06:27:15;;;;;;;19.79;17.38;;;;;;;5.02;79.54;101604.71;465595;113;930537;-81
2022/12/26 06:28:18;;;;;;;19.87;17.29;;;;;;;5.03;79.59;101617.23;464939;114;922430;-80
2022/12/26 06:29:22;;;;;;;19.00;17.12;;;;;;;5.02;79.40;101615.52;465732;114;922776;-80
2022/12/26 06:30:25;;;;;;;19.39;17.50;;;;;;;5.01;79.41;101614.70;465748;113;922492;-81
2022/12/26 06:31:28;;;;;;;18.08;16.29;;;;;;;5.03;79.42;101611.83;465713;114;922998;-82
2022/12/26 06:32:32;;;;;;;17.77;16.18;;;;;;;5.03;79.41;101611.83;465695;114;930527;-83
2022/12/26 06:33:36;;;;;;;19.05;17.22;;;;;;;5.04;79.42;101617.09;465098;114;922514;-81
2022/12/26 06:34:39;;;;;;;18.46;16.54;;;;;;;5.05;79.32;101612.53;465711;114;922695;-82
2022/12/26 06:35:43;;;;;;;18.86;16.94;;;;;;;5.05;79.30;101609.83;465748;114;922514;-81
2022/12/26 06:36:46;;;;;;;17.14;15.69;;;;;;;5.04;79.43;101611.68;465627;113;922600;-82
2022/12/26 06:37:49;;;;;;;18.53;16.54;;;;;;;5.05;79.30;101612.53;464104;112;930443;-81
2022/12/26 06:38:52;;;;;;;16.90;15.41;;;;;;;5.05;79.23;101615.23;457557;116;922458;-81
2022/12/26 06:39:55;;;;;;;17.37;15.63;;;;;;;5.04;79.16;101613.53;457444;116;922528;-82
2022/12/26 06:40:59;;;;;;;16.90;15.21;;;;;;;5.04;79.15;101610.83;457540;115;923254;-82
2022/12/26 06:42:04;;;;;;;16.71;15.22;;;;;;;5.04;79.12;101610.83;457485;116;922683;-81
2022/12/26 06:43:08;;;;;;;16.56;15.03;;;;;;;5.04;79.24;101616.23;458113;112;922478;-82
2022/12/26 06:44:12;;;;;;;16.56;15.06;;;;;;;5.04;79.20;101622.49;457484;116;922562;-82
2022/12/26 06:45:17;;;;;;;17.27;15.73;;;;;;;5.04;79.10;101622.49;456762;116;922765;-81
2022/12/26 06:46:22;;;;;;;17.49;15.74;;;;;;;5.06;79.11;101616.94;457529;116;922882;-81
2022/12/26 06:47:25;;;;;;;17.15;15.63;;;;;;;5.07;79.22;101626.75;457337;116;922405;-79
2022/12/26 06:48:29;;;;;;;16.02;14.68;;;;;;;5.08;79.05;101623.02;464170;114;922509;-81
2022/12/26 06:49:32;;;;;;;15.18;13.84;;;;;;;5.08;79.01;101624.88;465569;113;922547;-80
2022/12/26 06:50:36;;;;;;;17.25;15.78;;;;;;;5.10;78.94;101622.88;465423;113;930271;-81
2022/12/26 06:51:39;;;;;;;20.19;18.23;;;;;;;5.11;78.98;101625.44;465584;114;922557;-81
2022/12/26 06:52:43;;;;;;;16.89;15.17;;;;;;;5.12;78.94;101627.14;464872;112;922934;-82
2022/12/26 06:53:48;;;;;;;18.10;16.55;;;;;;;5.14;78.94;101626.96;465597;114;922504;-81
2022/12/26 06:54:51;;;;;;;16.58;14.92;;;;;;;5.15;78.88;101628.67;465413;114;922558;-80
2022/12/26 06:55:54;;;;;;;17.04;15.03;;;;;;;5.15;78.91;101632.22;457877;114;922795;-81
2022/12/26 06:56:58;;;;;;;15.94;14.61;;;;;;;5.16;78.79;101631.23;457057;116;922524;-80
2022/12/26 06:58:01;;;;;;;15.63;14.29;;;;;;;5.17;78.75;101621.27;458867;114;930417;-80
2022/12/26 06:59:05;;;;;;;15.44;13.95;;;;;;;5.17;78.81;101623.97;460840;115;923021;-84
2022/12/26 07:00:10;;;;;;;15.14;13.84;;;;;;;5.17;78.69;101630.23;451529;117;922498;-81
2022/12/26 07:01:16;;;;;;;13.32;12.24;;;;;;;5.18;78.78;101631.08;460668;115;923002;-82